Time;durP1;ratioP1;P1;durP2;ratioP2;P2;SDS_P1;SDS_P2;PMS_P1;PMS_P2;Temp;Humidity;BMP_temperature;BMP_pressure;BME280_temperature;BME280_humidity;BME280_pressure;Samples;Min_cycle;Max_cycle;Signal;HPM_P1;HPM_P2
2020/04/18 00:00:20;;;;;;;11;8.1;;;;;;;11.69;65;94960.06;;;;
2020/04/18 00:01:21;;;;;;;8.6;7.65;;;;;;;11.64;65.2627;94970.65;;;;
2020/04/18 00:02:21;;;;;;;8.6;7.65;;;;;;;11.64;65.2627;94970.65;;;;
2020/04/18 00:03:22;;;;;;;8.6;7.65;;;;;;;11.64;65.2627;94970.65;;;;
2020/04/18 00:04:22;;;;;;;12.3;7.8;;;;;;;11.6;65.46094;94968.56;;;;
2020/04/18 00:05:23;;;;;;;12.3;7.8;;;;;;;11.6;65.46094;94968.56;;;;
2020/04/18 00:06:24;;;;;;;12.3;7.85;;;;;;;11.56;65.7334;94967.97;;;;
2020/04/18 00:08:01;;;;;;;12.3;7.85;;;;;;;11.56;65.7334;94967.97;;;;
2020/04/18 00:09:03;;;;;;;9.6;7.849999;;;;;;;11.52;65.96387;94963.72;;;;
2020/04/18 00:15:17;;;;;;;9.199999;8.199999;;;;;;;11.41;66.49805;94960.47;;;;
2020/04/18 00:16:47;;;;;;;9.199999;8.199999;;;;;;;11.41;66.49805;94960.47;;;;
2020/04/18 00:17:48;;;;;;;12.25;8.549999;;;;;;;11.37;66.83301;94960.82;;;;
2020/04/18 00:18:49;;;;;;;12.25;8.549999;;;;;;;11.37;66.83301;94960.82;;;;
2020/04/18 00:19:49;;;;;;;10.25;8.700001;;;;;;;11.33;67.0957;94958.31;;;;
2020/04/18 00:20:50;;;;;;;10.25;8.700001;;;;;;;11.33;67.0957;94958.31;;;;
2020/04/18 00:21:50;;;;;;;10.25;8.700001;;;;;;;11.33;67.0957;94958.31;;;;
2020/04/18 00:22:51;;;;;;;9.100001;8.200001;;;;;;;11.28;67.43262;94952.84;;;;
2020/04/18 00:23:51;;;;;;;9.100001;8.200001;;;;;;;11.28;67.43262;94952.84;;;;
2020/04/18 00:24:52;;;;;;;12.9;8.349999;;;;;;;11.23;67.63867;94956.8;;;;
2020/04/18 00:25:52;;;;;;;12.9;8.349999;;;;;;;11.23;67.63867;94956.8;;;;
2020/04/18 00:26:52;;;;;;;12.9;8.349999;;;;;;;11.23;67.63867;94956.8;;;;
2020/04/18 00:27:53;;;;;;;11.35;8.950002;;;;;;;11.18;67.93164;94959.84;;;;
2020/04/18 00:28:53;;;;;;;11.35;8.950002;;;;;;;11.18;67.93164;94959.84;;;;
2020/04/18 00:29:54;;;;;;;11.35;8.950002;;;;;;;11.18;67.93164;94959.84;;;;
2020/04/18 00:30:54;;;;;;;10.3;8.699999;;;;;;;11.12;68.13867;94958.53;;;;
2020/04/18 00:31:55;;;;;;;10.3;8.699999;;;;;;;11.12;68.13867;94958.53;;;;
2020/04/18 00:32:55;;;;;;;11.15;8.749999;;;;;;;11.07;68.40918;94959.4;;;;
2020/04/18 00:33:56;;;;;;;11.15;8.749999;;;;;;;11.07;68.40918;94959.4;;;;
2020/04/18 00:34:56;;;;;;;11.15;8.749999;;;;;;;11.07;68.40918;94959.4;;;;
2020/04/18 00:35:56;;;;;;;11.25;9;;;;;;;11.02;68.6582;94954.33;;;;
2020/04/18 00:36:57;;;;;;;11.25;9;;;;;;;11.02;68.6582;94954.33;;;;
2020/04/18 00:37:57;;;;;;;13.3;8.95;;;;;;;10.96;68.93848;94952.61;;;;
2020/04/18 00:38:58;;;;;;;13.3;8.95;;;;;;;10.96;68.93848;94952.61;;;;
2020/04/18 00:39:58;;;;;;;13.3;8.95;;;;;;;10.96;68.93848;94952.61;;;;
2020/04/18 00:40:58;;;;;;;13.95;9.15;;;;;;;10.91;69.17969;94950.66;;;;
2020/04/18 00:41:59;;;;;;;13.95;9.15;;;;;;;10.91;69.17969;94950.66;;;;
2020/04/18 00:42:59;;;;;;;13.95;9.15;;;;;;;10.91;69.17969;94950.66;;;;
2020/04/18 00:44:00;;;;;;;15.15;9.549999;;;;;;;10.86;69.49219;94958.69;;;;
2020/04/18 00:45:01;;;;;;;15.15;9.549999;;;;;;;10.86;69.49219;94958.69;;;;
2020/04/18 00:46:01;;;;;;;11.55;9.15;;;;;;;10.81;69.67578;94954.12;;;;
2020/04/18 00:47:01;;;;;;;11.55;9.15;;;;;;;10.81;69.67578;94954.12;;;;
2020/04/18 00:48:02;;;;;;;11.55;9.15;;;;;;;10.81;69.67578;94954.12;;;;
2020/04/18 00:49:02;;;;;;;13.95;9.5;;;;;;;10.76;69.94727;94956.33;;;;
2020/04/18 00:50:03;;;;;;;13.95;9.5;;;;;;;10.76;69.94727;94956.33;;;;
2020/04/18 00:51:03;;;;;;;13.95;9.5;;;;;;;10.76;69.94727;94956.33;;;;
2020/04/18 00:52:04;;;;;;;12.35;9.249999;;;;;;;10.72;70.1543;94950.73;;;;
2020/04/18 00:53:04;;;;;;;12.35;9.249999;;;;;;;10.72;70.1543;94950.73;;;;
2020/04/18 00:54:05;;;;;;;12.3;9.35;;;;;;;10.67;70.41406;94952.01;;;;
2020/04/18 00:55:05;;;;;;;12.3;9.35;;;;;;;10.67;70.41406;94952.01;;;;
2020/04/18 00:56:06;;;;;;;12.3;9.35;;;;;;;10.67;70.41406;94952.01;;;;
2020/04/18 00:57:06;;;;;;;11.15;9.199999;;;;;;;10.62;70.61035;94953.25;;;;
2020/04/18 00:58:07;;;;;;;11.15;9.199999;;;;;;;10.62;70.61035;94953.25;;;;
2020/04/18 00:59:07;;;;;;;11.75;9.5;;;;;;;10.57;70.8916;94951.29;;;;
2020/04/18 01:00:08;;;;;;;11.75;9.5;;;;;;;10.57;70.8916;94951.29;;;;
2020/04/18 01:01:08;;;;;;;11.75;9.5;;;;;;;10.57;70.8916;94951.29;;;;
2020/04/18 01:02:09;;;;;;;14.65;9.6;;;;;;;10.52;71.04492;94950.66;;;;
2020/04/18 01:03:09;;;;;;;14.65;9.6;;;;;;;10.52;71.04492;94950.66;;;;
2020/04/18 01:04:10;;;;;;;14.65;9.6;;;;;;;10.52;71.04492;94950.66;;;;
2020/04/18 01:05:11;;;;;;;13;9.35;;;;;;;10.47;71.3252;94954.77;;;;
2020/04/18 01:06:12;;;;;;;13;9.35;;;;;;;10.47;71.3252;94954.77;;;;
2020/04/18 01:07:14;;;;;;;12.7;9.65;;;;;;;10.42;71.49902;94955.47;;;;
2020/04/18 01:08:20;;;;;;;12.7;9.65;;;;;;;10.42;71.49902;94955.47;;;;
2020/04/18 01:09:23;;;;;;;12.7;9.65;;;;;;;10.42;71.49902;94955.47;;;;
2020/04/18 01:10:24;;;;;;;12.2;9.250001;;;;;;;10.37;71.74805;94949.06;;;;
2020/04/18 01:11:25;;;;;;;12.2;9.250001;;;;;;;10.37;71.74805;94949.06;;;;
2020/04/18 01:12:32;;;;;;;10.7;9.1;;;;;;;10.33;71.90234;94955.99;;;;
2020/04/18 01:13:52;;;;;;;10.7;9.1;;;;;;;10.33;71.90234;94955.99;;;;
2020/04/18 01:15:02;;;;;;;14.05;8.950001;;;;;;;10.29;72.18359;94954.42;;;;
2020/04/18 01:16:04;;;;;;;14.05;8.950001;;;;;;;10.29;72.18359;94954.42;;;;
2020/04/18 01:17:07;;;;;;;14.05;8.950001;;;;;;;10.29;72.18359;94954.42;;;;
2020/04/18 01:18:12;;;;;;;14.3;9.799999;;;;;;;10.25;72.41309;94955.98;;;;
2020/04/18 01:19:15;;;;;;;14.3;9.799999;;;;;;;10.25;72.41309;94955.98;;;;
2020/04/18 01:20:57;;;;;;;12.05;9.550001;;;;;;;10.22;72.74023;94965.89;;;;
2020/04/18 01:22:00;;;;;;;12.05;9.550001;;;;;;;10.22;72.74023;94965.89;;;;
2020/04/18 01:23:03;;;;;;;12.05;9.550001;;;;;;;10.22;72.74023;94965.89;;;;
2020/04/18 01:24:03;;;;;;;12.05;9.550001;;;;;;;10.22;72.74023;94965.89;;;;
2020/04/18 01:25:06;;;;;;;12.05;9.550001;;;;;;;10.22;72.74023;94965.89;;;;
2020/04/18 01:26:08;;;;;;;12.05;9.550001;;;;;;;10.22;72.74023;94965.89;;;;
2020/04/18 01:27:14;;;;;;;12.05;9.550001;;;;;;;10.22;72.74023;94965.89;;;;
2020/04/18 01:28:23;;;;;;;12.05;9.550001;;;;;;;10.22;72.74023;94965.89;;;;
2020/04/18 01:29:33;;;;;;;12.05;9.550001;;;;;;;10.22;72.74023;94965.89;;;;
2020/04/18 01:30:39;;;;;;;12.05;9.550001;;;;;;;10.22;72.74023;94965.89;;;;
2020/04/18 01:31:40;;;;;;;12.05;9.550001;;;;;;;10.22;72.74023;94965.89;;;;
2020/04/18 01:32:52;;;;;;;12.05;9.550001;;;;;;;10.22;72.74023;94965.89;;;;
2020/04/18 01:34:03;;;;;;;11.9;9.45;;;;;;;9.77;72.0459;94961.74;;;;
2020/04/18 01:35:20;;;;;;;11.9;9.45;;;;;;;9.77;72.0459;94961.74;;;;
2020/04/18 01:36:29;;;;;;;13.15;9.700001;;;;;;;9.81;72.4375;94956.17;;;;
2020/04/18 01:37:41;;;;;;;13.15;9.700001;;;;;;;9.81;72.4375;94956.17;;;;
2020/04/18 01:38:51;;;;;;;13.15;9.700001;;;;;;;9.81;72.4375;94956.17;;;;
2020/04/18 01:39:55;;;;;;;12.5;9.4;;;;;;;9.81;73.01465;94957.51;;;;
2020/04/18 01:40:57;;;;;;;12.5;9.4;;;;;;;9.81;73.01465;94957.51;;;;
2020/04/18 01:41:59;;;;;;;12.5;9.4;;;;;;;9.81;73.01465;94957.51;;;;
2020/04/18 01:43:00;;;;;;;12.5;9.4;;;;;;;9.81;73.01465;94957.51;;;;
2020/04/18 01:44:00;;;;;;;12.5;9.4;;;;;;;9.81;73.01465;94957.51;;;;
2020/04/18 01:45:01;;;;;;;12.5;9.4;;;;;;;9.81;73.01465;94957.51;;;;
2020/04/18 01:46:03;;;;;;;12.5;9.4;;;;;;;9.81;73.01465;94957.51;;;;
2020/04/18 01:47:05;;;;;;;12.5;9.4;;;;;;;9.81;73.01465;94957.51;;;;
2020/04/18 01:48:12;;;;;;;12.5;9.4;;;;;;;9.81;73.01465;94957.51;;;;
2020/04/18 01:49:14;;;;;;;12.5;9.4;;;;;;;9.81;73.01465;94957.51;;;;
2020/04/18 01:50:17;;;;;;;12.85;8.999999;;;;;;;9.47;71.77051;94949.92;;;;
2020/04/18 01:51:17;;;;;;;12.85;8.999999;;;;;;;9.47;71.77051;94949.92;;;;
2020/04/18 01:52:18;;;;;;;10.9;9.6;;;;;;;9.45;72.89063;94946.12;;;;
2020/04/18 01:53:19;;;;;;;10.9;9.6;;;;;;;9.45;72.89063;94946.12;;;;
2020/04/18 01:54:19;;;;;;;10.9;9.6;;;;;;;9.45;72.89063;94946.12;;;;
2020/04/18 01:55:19;;;;;;;11.65;8.450002;;;;;;;9.5;73.48535;94945.81;;;;
2020/04/18 01:56:20;;;;;;;11.65;8.450002;;;;;;;9.5;73.48535;94945.81;;;;
2020/04/18 01:57:21;;;;;;;11.65;8.450002;;;;;;;9.5;73.48535;94945.81;;;;
2020/04/18 01:58:22;;;;;;;12.1;9.200001;;;;;;;9.55;73.96191;94947.39;;;;
2020/04/18 01:59:23;;;;;;;12.1;9.200001;;;;;;;9.55;73.96191;94947.39;;;;
2020/04/18 02:00:23;;;;;;;9.85;8.85;;;;;;;9.58;74.29688;94940.17;;;;
2020/04/18 02:01:23;;;;;;;9.85;8.85;;;;;;;9.58;74.29688;94940.17;;;;
2020/04/18 02:02:24;;;;;;;9.85;8.85;;;;;;;9.58;74.29688;94940.17;;;;
2020/04/18 02:03:24;;;;;;;11.8;8.65;;;;;;;9.61;74.65625;94945.9;;;;
2020/04/18 02:04:25;;;;;;;11.8;8.65;;;;;;;9.61;74.65625;94945.9;;;;
2020/04/18 02:05:26;;;;;;;10.45;8.299999;;;;;;;9.62;74.80664;94944.86;;;;
2020/04/18 02:06:26;;;;;;;10.45;8.299999;;;;;;;9.62;74.80664;94944.86;;;;
2020/04/18 02:07:27;;;;;;;10.45;8.299999;;;;;;;9.62;74.80664;94944.86;;;;
2020/04/18 02:08:27;;;;;;;9.649999;8.649999;;;;;;;9.63;75.0332;94941.51;;;;
2020/04/18 02:14:39;;;;;;;9.649999;8.649999;;;;;;;9.63;75.0332;94941.51;;;;
2020/04/18 02:15:40;;;;;;;9.649999;8.649999;;;;;;;9.63;75.0332;94941.51;;;;
2020/04/18 02:16:40;;;;;;;9.649999;8.649999;;;;;;;9.63;75.0332;94941.51;;;;
2020/04/18 02:17:41;;;;;;;9.649999;8.649999;;;;;;;9.63;75.0332;94941.51;;;;
2020/04/18 02:18:41;;;;;;;9.7;8.599999;;;;;;;9.32;73.40234;94953.09;;;;
2020/04/18 02:19:42;;;;;;;9.7;8.599999;;;;;;;9.32;73.40234;94953.09;;;;
2020/04/18 02:20:42;;;;;;;9.7;8.599999;;;;;;;9.32;73.40234;94953.09;;;;
2020/04/18 02:21:43;;;;;;;11.35;8.349999;;;;;;;9.32;74.4375;94953.09;;;;
2020/04/18 02:22:43;;;;;;;11.35;8.349999;;;;;;;9.32;74.4375;94953.09;;;;
2020/04/18 02:23:43;;;;;;;11.35;8.349999;;;;;;;9.32;74.4375;94953.09;;;;
2020/04/18 02:24:44;;;;;;;10.5;8.450001;;;;;;;9.39;74.92871;94950.69;;;;
2020/04/18 02:25:44;;;;;;;10.5;8.450001;;;;;;;9.39;74.92871;94950.69;;;;
2020/04/18 02:26:45;;;;;;;12.05;8.5;;;;;;;9.47;75.32715;94953.44;;;;
2020/04/18 02:27:45;;;;;;;12.05;8.5;;;;;;;9.47;75.32715;94953.44;;;;
2020/04/18 02:28:46;;;;;;;12.05;8.5;;;;;;;9.47;75.32715;94953.44;;;;
2020/04/18 02:29:46;;;;;;;10.15;7.950001;;;;;;;9.57;75.61914;94957.4;;;;
2020/04/18 02:30:47;;;;;;;10.15;7.950001;;;;;;;9.57;75.61914;94957.4;;;;
2020/04/18 02:31:49;;;;;;;10.15;7.950001;;;;;;;9.57;75.61914;94957.4;;;;
2020/04/18 02:32:51;;;;;;;8.949999;7.849999;;;;;;;9.66;75.9668;94960.44;;;;
2020/04/18 02:33:53;;;;;;;8.949999;7.849999;;;;;;;9.66;75.9668;94960.44;;;;
2020/04/18 02:34:54;;;;;;;8.949999;7.849999;;;;;;;9.66;75.9668;94960.44;;;;
2020/04/18 02:36:01;;;;;;;8.949999;7.849999;;;;;;;9.66;75.9668;94960.44;;;;
2020/04/18 02:40:04;;;;;;;8.949999;7.849999;;;;;;;9.66;75.9668;94960.44;;;;
2020/04/18 02:41:04;;;;;;;8.949999;7.849999;;;;;;;9.66;75.9668;94960.44;;;;
2020/04/18 02:42:05;;;;;;;8.949999;7.849999;;;;;;;9.66;75.9668;94960.44;;;;
2020/04/18 02:43:05;;;;;;;10.75;7.700001;;;;;;;9.62;74.0918;94958.86;;;;
2020/04/18 02:44:06;;;;;;;10.75;7.700001;;;;;;;9.62;74.0918;94958.86;;;;
2020/04/18 02:45:06;;;;;;;10.9;8.1;;;;;;;9.67;74.91113;94958.44;;;;
2020/04/18 02:46:07;;;;;;;10.9;8.1;;;;;;;9.67;74.91113;94958.44;;;;
2020/04/18 02:47:07;;;;;;;10.9;8.1;;;;;;;9.67;74.91113;94958.44;;;;
2020/04/18 02:48:08;;;;;;;10.9;8.1;;;;;;;9.67;74.91113;94958.44;;;;
2020/04/18 02:49:08;;;;;;;10.9;8.1;;;;;;;9.67;74.91113;94958.44;;;;
2020/04/18 02:50:09;;;;;;;10.9;8.1;;;;;;;9.67;74.91113;94958.44;;;;
2020/04/18 02:51:09;;;;;;;10.9;8.1;;;;;;;9.67;74.91113;94958.44;;;;
2020/04/18 02:52:10;;;;;;;10.9;8.1;;;;;;;9.67;74.91113;94958.44;;;;
2020/04/18 02:53:10;;;;;;;10.9;8.1;;;;;;;9.67;74.91113;94958.44;;;;
2020/04/18 02:54:11;;;;;;;10.9;8.1;;;;;;;9.67;74.91113;94958.44;;;;
2020/04/18 02:55:11;;;;;;;10.9;8.1;;;;;;;9.67;74.91113;94958.44;;;;
2020/04/18 02:56:11;;;;;;;10.95;7.699999;;;;;;;9.55;73.48242;94953.61;;;;
2020/04/18 02:57:12;;;;;;;10.95;7.699999;;;;;;;9.55;73.48242;94953.61;;;;
2020/04/18 02:58:12;;;;;;;10.95;7.699999;;;;;;;9.55;73.48242;94953.61;;;;
2020/04/18 02:59:13;;;;;;;11.1;8.200001;;;;;;;9.56;74.45605;94952.54;;;;
2020/04/18 03:00:13;;;;;;;11.1;8.200001;;;;;;;9.56;74.45605;94952.54;;;;
2020/04/18 03:01:14;;;;;;;11.1;8.200001;;;;;;;9.56;74.45605;94952.54;;;;
2020/04/18 03:02:14;;;;;;;11.1;8.200001;;;;;;;9.56;74.45605;94952.54;;;;
2020/04/18 03:03:15;;;;;;;11.1;8.200001;;;;;;;9.56;74.45605;94952.54;;;;
2020/04/18 03:04:16;;;;;;;11.1;8.200001;;;;;;;9.56;74.45605;94952.54;;;;
2020/04/18 03:05:16;;;;;;;11.1;8.200001;;;;;;;9.56;74.45605;94952.54;;;;
2020/04/18 03:06:16;;;;;;;11.1;8.200001;;;;;;;9.56;74.45605;94952.54;;;;
2020/04/18 03:07:17;;;;;;;11.1;8.200001;;;;;;;9.56;74.45605;94952.54;;;;
2020/04/18 03:08:17;;;;;;;11.1;8.200001;;;;;;;9.56;74.45605;94952.54;;;;
2020/04/18 03:09:18;;;;;;;10.95;7.75;;;;;;;9.39;73.35938;94948.41;;;;
2020/04/18 03:10:18;;;;;;;10.95;7.75;;;;;;;9.39;73.35938;94948.41;;;;
2020/04/18 03:11:19;;;;;;;10.95;7.75;;;;;;;9.39;73.35938;94948.41;;;;
2020/04/18 03:12:20;;;;;;;10.4;7.85;;;;;;;9.41;74.40918;94948.58;;;;
2020/04/18 03:13:23;;;;;;;10.4;7.85;;;;;;;9.41;74.40918;94948.58;;;;
2020/04/18 03:14:26;;;;;;;12.05;8.250001;;;;;;;9.48;75.00684;94946.15;;;;
2020/04/18 03:15:29;;;;;;;12.05;8.250001;;;;;;;9.48;75.00684;94946.15;;;;
2020/04/18 03:16:33;;;;;;;12.05;8.250001;;;;;;;9.48;75.00684;94946.15;;;;
2020/04/18 03:17:39;;;;;;;10.6;8;;;;;;;9.55;75.4668;94948.74;;;;
2020/04/18 03:18:39;;;;;;;10.6;8;;;;;;;9.55;75.4668;94948.74;;;;
2020/04/18 03:19:40;;;;;;;10.6;8;;;;;;;9.55;75.4668;94948.74;;;;
2020/04/18 03:20:40;;;;;;;10.6;8;;;;;;;9.55;75.4668;94948.74;;;;
2020/04/18 03:21:41;;;;;;;10.6;8;;;;;;;9.55;75.4668;94948.74;;;;
2020/04/18 03:22:41;;;;;;;10.6;8;;;;;;;9.55;75.4668;94948.74;;;;
2020/04/18 03:23:42;;;;;;;10.6;8;;;;;;;9.55;75.4668;94948.74;;;;
2020/04/18 03:24:42;;;;;;;10.6;8;;;;;;;9.55;75.4668;94948.74;;;;
2020/04/18 03:25:42;;;;;;;10.6;8;;;;;;;9.55;75.4668;94948.74;;;;
2020/04/18 03:26:43;;;;;;;10.6;8;;;;;;;9.55;75.4668;94948.74;;;;
2020/04/18 03:27:44;;;;;;;8.700002;7.649999;;;;;;;9.3;74.06934;94958.04;;;;
2020/04/18 03:28:44;;;;;;;8.700002;7.649999;;;;;;;9.3;74.06934;94958.04;;;;
2020/04/18 03:29:45;;;;;;;8.700002;7.649999;;;;;;;9.3;74.06934;94958.04;;;;
2020/04/18 03:30:45;;;;;;;8.799998;7.75;;;;;;;9.3;75.12598;94960.74;;;;
2020/04/18 03:31:45;;;;;;;8.799998;7.75;;;;;;;9.3;75.12598;94960.74;;;;
2020/04/18 03:32:46;;;;;;;8.799998;7.75;;;;;;;9.3;75.12598;94960.74;;;;
2020/04/18 03:33:46;;;;;;;8.799998;7.75;;;;;;;9.3;75.12598;94960.74;;;;
2020/04/18 03:34:47;;;;;;;8.799998;7.75;;;;;;;9.3;75.12598;94960.74;;;;
2020/04/18 03:35:47;;;;;;;8.799998;7.75;;;;;;;9.3;75.12598;94960.74;;;;
2020/04/18 03:36:47;;;;;;;8.799998;7.75;;;;;;;9.3;75.12598;94960.74;;;;
2020/04/18 03:37:48;;;;;;;8.799998;7.75;;;;;;;9.3;75.12598;94960.74;;;;
2020/04/18 03:38:48;;;;;;;8.799998;7.75;;;;;;;9.3;75.12598;94960.74;;;;
2020/04/18 03:39:49;;;;;;;8.799998;7.75;;;;;;;9.3;75.12598;94960.74;;;;
2020/04/18 03:40:49;;;;;;;12.85;8.200001;;;;;;;9.2;74.12793;94975.2;;;;
2020/04/18 03:41:50;;;;;;;12.85;8.200001;;;;;;;9.2;74.12793;94975.2;;;;
2020/04/18 03:42:50;;;;;;;12.85;8.200001;;;;;;;9.2;74.12793;94975.2;;;;
2020/04/18 03:43:51;;;;;;;12.15;7.8;;;;;;;9.27;75.1543;94970.5;;;;
2020/04/18 03:44:51;;;;;;;12.15;7.8;;;;;;;9.27;75.1543;94970.5;;;;
2020/04/18 03:45:52;;;;;;;12.15;7.8;;;;;;;9.27;75.1543;94970.5;;;;
2020/04/18 03:46:52;;;;;;;12.15;7.8;;;;;;;9.27;75.1543;94970.5;;;;
2020/04/18 03:47:53;;;;;;;12.15;7.8;;;;;;;9.27;75.1543;94970.5;;;;
2020/04/18 03:48:54;;;;;;;12.15;7.8;;;;;;;9.27;75.1543;94970.5;;;;
2020/04/18 03:49:54;;;;;;;12.15;7.8;;;;;;;9.27;75.1543;94970.5;;;;
2020/04/18 03:50:55;;;;;;;12.15;7.8;;;;;;;9.27;75.1543;94970.5;;;;
2020/04/18 03:51:55;;;;;;;12.15;7.8;;;;;;;9.27;75.1543;94970.5;;;;
2020/04/18 03:52:56;;;;;;;12.15;7.8;;;;;;;9.27;75.1543;94970.5;;;;
2020/04/18 03:53:56;;;;;;;12.15;7.8;;;;;;;9.27;75.1543;94970.5;;;;
2020/04/18 03:54:57;;;;;;;12.4;7.5;;;;;;;9.26;73.97754;94983.67;;;;
2020/04/18 03:55:57;;;;;;;12.4;7.5;;;;;;;9.26;73.97754;94983.67;;;;
2020/04/18 03:56:58;;;;;;;10.85;7.849999;;;;;;;9.29;75.13477;94986.43;;;;
2020/04/18 03:57:58;;;;;;;10.85;7.849999;;;;;;;9.29;75.13477;94986.43;;;;
2020/04/18 03:58:58;;;;;;;10.85;7.849999;;;;;;;9.29;75.13477;94986.43;;;;
2020/04/18 03:59:59;;;;;;;10.85;7.849999;;;;;;;9.29;75.13477;94986.43;;;;
2020/04/18 04:00:59;;;;;;;10.85;7.849999;;;;;;;9.29;75.13477;94986.43;;;;
2020/04/18 04:02:00;;;;;;;10.85;7.849999;;;;;;;9.29;75.13477;94986.43;;;;
2020/04/18 04:03:00;;;;;;;10.85;7.849999;;;;;;;9.29;75.13477;94986.43;;;;
2020/04/18 04:04:01;;;;;;;10.85;7.849999;;;;;;;9.29;75.13477;94986.43;;;;
2020/04/18 04:05:02;;;;;;;10.85;7.849999;;;;;;;9.29;75.13477;94986.43;;;;
2020/04/18 04:06:02;;;;;;;10.85;7.849999;;;;;;;9.29;75.13477;94986.43;;;;
2020/04/18 04:07:03;;;;;;;10.85;7.849999;;;;;;;9.29;75.13477;94986.43;;;;
2020/04/18 04:08:03;;;;;;;9.8;7.2;;;;;;;9.13;74.20996;94992.11;;;;
2020/04/18 04:09:04;;;;;;;9.8;7.2;;;;;;;9.13;74.20996;94992.11;;;;
2020/04/18 04:10:10;;;;;;;8.85;7.349999;;;;;;;9.15;75.42969;94998.08;;;;
2020/04/18 04:11:10;;;;;;;8.85;7.349999;;;;;;;9.15;75.42969;94998.08;;;;
2020/04/18 04:12:11;;;;;;;8.85;7.349999;;;;;;;9.15;75.42969;94998.08;;;;
2020/04/18 04:13:11;;;;;;;11;8.1;;;;;;;9.2;76.1543;95007.51;;;;
2020/04/18 04:14:12;;;;;;;11;8.1;;;;;;;9.2;76.1543;95007.51;;;;
2020/04/18 04:15:12;;;;;;;11;8.1;;;;;;;9.2;76.1543;95007.51;;;;
2020/04/18 04:16:13;;;;;;;11;8.1;;;;;;;9.2;76.1543;95007.51;;;;
2020/04/18 04:17:13;;;;;;;11;8.1;;;;;;;9.2;76.1543;95007.51;;;;
2020/04/18 04:18:14;;;;;;;11;8.1;;;;;;;9.2;76.1543;95007.51;;;;
2020/04/18 04:19:14;;;;;;;11;8.1;;;;;;;9.2;76.1543;95007.51;;;;
2020/04/18 04:20:15;;;;;;;11;8.1;;;;;;;9.2;76.1543;95007.51;;;;
2020/04/18 04:21:15;;;;;;;11;8.1;;;;;;;9.2;76.1543;95007.51;;;;
2020/04/18 04:22:15;;;;;;;11;8.1;;;;;;;9.2;76.1543;95007.51;;;;
2020/04/18 04:23:16;;;;;;;9.400002;7.6;;;;;;;9.08;74.92676;95008.57;;;;
2020/04/18 04:24:16;;;;;;;9.400002;7.6;;;;;;;9.08;74.92676;95008.57;;;;
2020/04/18 04:25:17;;;;;;;9.400002;7.6;;;;;;;9.08;74.92676;95008.57;;;;
2020/04/18 04:26:17;;;;;;;9.400002;7.6;;;;;;;9.08;74.92676;95008.57;;;;
2020/04/18 04:27:18;;;;;;;9.400002;7.6;;;;;;;9.08;74.92676;95008.57;;;;
2020/04/18 04:28:18;;;;;;;9.400002;7.6;;;;;;;9.08;74.92676;95008.57;;;;
2020/04/18 04:29:18;;;;;;;9.400002;7.6;;;;;;;9.08;74.92676;95008.57;;;;
2020/04/18 04:30:19;;;;;;;9.400002;7.6;;;;;;;9.08;74.92676;95008.57;;;;
2020/04/18 04:31:19;;;;;;;9.400002;7.6;;;;;;;9.08;74.92676;95008.57;;;;
2020/04/18 04:32:20;;;;;;;9.400002;7.6;;;;;;;9.08;74.92676;95008.57;;;;
2020/04/18 04:33:20;;;;;;;9.400002;7.6;;;;;;;9.08;74.92676;95008.57;;;;
2020/04/18 04:34:21;;;;;;;9.000002;7.299999;;;;;;;8.92;74.55762;95014.64;;;;
2020/04/18 04:35:21;;;;;;;9.000002;7.299999;;;;;;;8.92;74.55762;95014.64;;;;
2020/04/18 04:36:22;;;;;;;9.000002;7.299999;;;;;;;8.92;74.55762;95014.64;;;;
2020/04/18 04:37:22;;;;;;;10.55;7.85;;;;;;;8.97;75.81445;95014.24;;;;
2020/04/18 04:38:22;;;;;;;10.55;7.85;;;;;;;8.97;75.81445;95014.24;;;;
2020/04/18 04:39:23;;;;;;;10.55;7.85;;;;;;;8.97;75.81445;95014.24;;;;
2020/04/18 04:40:23;;;;;;;10.55;7.85;;;;;;;8.97;75.81445;95014.24;;;;
2020/04/18 04:41:24;;;;;;;10.55;7.85;;;;;;;8.97;75.81445;95014.24;;;;
2020/04/18 04:42:24;;;;;;;10.55;7.85;;;;;;;8.97;75.81445;95014.24;;;;
2020/04/18 04:43:25;;;;;;;10.55;7.85;;;;;;;8.97;75.81445;95014.24;;;;
2020/04/18 04:44:25;;;;;;;10.55;7.85;;;;;;;8.97;75.81445;95014.24;;;;
2020/04/18 04:45:33;;;;;;;10.55;7.85;;;;;;;8.97;75.81445;95014.24;;;;
2020/04/18 04:46:35;;;;;;;10.55;7.85;;;;;;;8.97;75.81445;95014.24;;;;
2020/04/18 04:47:35;;;;;;;9.600001;7.1;;;;;;;9.07;74.81836;95021.34;;;;
2020/04/18 04:48:37;;;;;;;9.600001;7.1;;;;;;;9.07;74.81836;95021.34;;;;
2020/04/18 04:49:37;;;;;;;9.600001;7.1;;;;;;;9.07;74.81836;95021.34;;;;
2020/04/18 04:50:38;;;;;;;8.500001;7.100001;;;;;;;9.17;75.95605;95018.87;;;;
2020/04/18 04:51:42;;;;;;;8.500001;7.100001;;;;;;;9.17;75.95605;95018.87;;;;
2020/04/18 04:52:43;;;;;;;8.500001;7.100001;;;;;;;9.17;75.95605;95018.87;;;;
2020/04/18 04:53:43;;;;;;;8.500001;7.100001;;;;;;;9.17;75.95605;95018.87;;;;
2020/04/18 04:54:43;;;;;;;8.500001;7.100001;;;;;;;9.17;75.95605;95018.87;;;;
2020/04/18 04:55:44;;;;;;;8.500001;7.100001;;;;;;;9.17;75.95605;95018.87;;;;
2020/04/18 04:56:44;;;;;;;8.500001;7.100001;;;;;;;9.17;75.95605;95018.87;;;;
2020/04/18 04:57:45;;;;;;;8.500001;7.100001;;;;;;;9.17;75.95605;95018.87;;;;
2020/04/18 04:58:45;;;;;;;8.500001;7.100001;;;;;;;9.17;75.95605;95018.87;;;;
2020/04/18 04:59:46;;;;;;;8.500001;7.100001;;;;;;;9.17;75.95605;95018.87;;;;
2020/04/18 05:00:46;;;;;;;9.65;6.849999;;;;;;;9.47;74.77051;95023.1;;;;
2020/04/18 05:01:47;;;;;;;9.65;6.849999;;;;;;;9.47;74.77051;95023.1;;;;
2020/04/18 05:02:48;;;;;;;9.65;6.849999;;;;;;;9.47;74.77051;95023.1;;;;
2020/04/18 05:03:49;;;;;;;7.249999;6.45;;;;;;;9.66;75.65723;95030.11;;;;
2020/04/18 05:04:50;;;;;;;7.249999;6.45;;;;;;;9.66;75.65723;95030.11;;;;
2020/04/18 05:05:50;;;;;;;7.249999;6.45;;;;;;;9.66;75.65723;95030.11;;;;
2020/04/18 05:06:51;;;;;;;7.249999;6.45;;;;;;;9.66;75.65723;95030.11;;;;
2020/04/18 05:07:51;;;;;;;7.249999;6.45;;;;;;;9.66;75.65723;95030.11;;;;
2020/04/18 05:08:52;;;;;;;7.249999;6.45;;;;;;;9.66;75.65723;95030.11;;;;
2020/04/18 05:09:52;;;;;;;7.249999;6.45;;;;;;;9.66;75.65723;95030.11;;;;
2020/04/18 05:10:53;;;;;;;7.249999;6.45;;;;;;;9.66;75.65723;95030.11;;;;
2020/04/18 05:11:53;;;;;;;7.249999;6.45;;;;;;;9.66;75.65723;95030.11;;;;
2020/04/18 05:12:53;;;;;;;7.249999;6.45;;;;;;;9.66;75.65723;95030.11;;;;
2020/04/18 05:13:54;;;;;;;8.250001;6.550001;;;;;;;10.2;74.125;95031.97;;;;
2020/04/18 05:14:54;;;;;;;8.250001;6.550001;;;;;;;10.2;74.125;95031.97;;;;
2020/04/18 05:15:55;;;;;;;8.250001;6.550001;;;;;;;10.2;74.125;95031.97;;;;
2020/04/18 05:16:55;;;;;;;10.6;6.75;;;;;;;10.41;74.69727;95030.77;;;;
2020/04/18 05:17:56;;;;;;;10.6;6.75;;;;;;;10.41;74.69727;95030.77;;;;
2020/04/18 05:18:56;;;;;;;10.6;6.75;;;;;;;10.41;74.69727;95030.77;;;;
2020/04/18 05:19:57;;;;;;;10.6;6.75;;;;;;;10.41;74.69727;95030.77;;;;
2020/04/18 05:20:57;;;;;;;10.6;6.75;;;;;;;10.41;74.69727;95030.77;;;;
2020/04/18 05:21:57;;;;;;;10.6;6.75;;;;;;;10.41;74.69727;95030.77;;;;
2020/04/18 05:22:58;;;;;;;10.6;6.75;;;;;;;10.41;74.69727;95030.77;;;;
2020/04/18 05:23:58;;;;;;;10.6;6.75;;;;;;;10.41;74.69727;95030.77;;;;
2020/04/18 05:24:59;;;;;;;10.6;6.75;;;;;;;10.41;74.69727;95030.77;;;;
2020/04/18 05:25:59;;;;;;;10.6;6.75;;;;;;;10.41;74.69727;95030.77;;;;
2020/04/18 05:27:00;;;;;;;13.4;6.550001;;;;;;;11.11;72.86621;95037.03;;;;
2020/04/18 05:28:00;;;;;;;13.4;6.550001;;;;;;;11.11;72.86621;95037.03;;;;
2020/04/18 05:29:00;;;;;;;13.4;6.550001;;;;;;;11.11;72.86621;95037.03;;;;
2020/04/18 05:30:01;;;;;;;7.15;5.9;;;;;;;11.37;73.23145;95040;;;;
2020/04/18 05:31:02;;;;;;;7.15;5.9;;;;;;;11.37;73.23145;95040;;;;
2020/04/18 05:32:03;;;;;;;7.15;5.9;;;;;;;11.37;73.23145;95040;;;;
2020/04/18 05:33:03;;;;;;;7.15;5.9;;;;;;;11.37;73.23145;95040;;;;
2020/04/18 05:34:04;;;;;;;7.15;5.9;;;;;;;11.37;73.23145;95040;;;;
2020/04/18 05:35:04;;;;;;;7.15;5.9;;;;;;;11.37;73.23145;95040;;;;
2020/04/18 05:36:04;;;;;;;7.15;5.9;;;;;;;11.37;73.23145;95040;;;;
2020/04/18 05:37:05;;;;;;;7.15;5.9;;;;;;;11.37;73.23145;95040;;;;
2020/04/18 05:38:05;;;;;;;7.15;5.9;;;;;;;11.37;73.23145;95040;;;;
2020/04/18 05:39:06;;;;;;;7.15;5.9;;;;;;;11.37;73.23145;95040;;;;
2020/04/18 05:40:08;;;;;;;7.15;5.9;;;;;;;11.37;73.23145;95040;;;;
2020/04/18 05:41:08;;;;;;;9.050001;5.95;;;;;;;12.22;71.11523;95035.55;;;;
2020/04/18 05:42:09;;;;;;;9.050001;5.95;;;;;;;12.22;71.11523;95035.55;;;;
2020/04/18 05:43:09;;;;;;;8.450001;5.85;;;;;;;12.48;71.05078;95046.04;;;;
2020/04/18 05:44:10;;;;;;;8.450001;5.85;;;;;;;12.48;71.05078;95046.04;;;;
2020/04/18 05:45:10;;;;;;;8.450001;5.85;;;;;;;12.48;71.05078;95046.04;;;;
2020/04/18 05:46:10;;;;;;;11.15;5.65;;;;;;;12.8;70.52246;95040.58;;;;
2020/04/18 05:47:11;;;;;;;11.15;5.65;;;;;;;12.8;70.52246;95040.58;;;;
2020/04/18 05:48:11;;;;;;;7.65;5.45;;;;;;;13.11;69.96777;95044.02;;;;
2020/04/18 05:49:12;;;;;;;7.65;5.45;;;;;;;13.11;69.96777;95044.02;;;;
2020/04/18 05:50:12;;;;;;;7.65;5.45;;;;;;;13.11;69.96777;95044.02;;;;
2020/04/18 05:51:13;;;;;;;7.65;5.45;;;;;;;13.11;69.96777;95044.02;;;;
2020/04/18 05:52:13;;;;;;;7.65;5.45;;;;;;;13.11;69.96777;95044.02;;;;
2020/04/18 05:53:14;;;;;;;7.65;5.45;;;;;;;13.11;69.96777;95044.02;;;;
2020/04/18 05:54:14;;;;;;;7.65;5.45;;;;;;;13.11;69.96777;95044.02;;;;